Time;durP1;ratioP1;P1;durP2;ratioP2;P2;SDS_P1;SDS_P2;PMS_P1;PMS_P2;Temp;Humidity;BMP_temperature;BMP_pressure;BME280_temperature;BME280_humidity;BME280_pressure;Samples;Min_cycle;Max_cycle;Signal;HPM_P1;HPM_P2
2021/11/10 00:00:16;;;;;;;25.70;13.17;;;1.60;99.90;;;;;;4109518;28;20421;-62
2021/11/10 00:02:17;;;;;;;30.93;13.27;;;1.50;99.90;;;;;;4108549;28;20323;-64
2021/11/10 00:04:20;;;;;;;28.23;13.03;;;1.40;99.90;;;;;;4108576;28;20285;-61
2021/11/10 00:06:21;;;;;;;23.63;12.53;;;1.40;99.90;;;;;;4108406;28;20296;-61
2021/11/10 00:08:22;;;;;;;23.43;12.07;;;1.30;99.90;;;;;;4108564;28;20315;-61
2021/11/10 00:10:23;;;;;;;28.37;13.27;;;1.20;99.90;;;;;;4109207;28;20273;-62
2021/11/10 00:12:24;;;;;;;23.63;12.97;;;1.10;99.90;;;;;;4108298;28;20320;-67
2021/11/10 00:14:26;;;;;;;21.83;12.40;;;1.00;99.90;;;;;;4109097;28;20276;-60
2021/11/10 00:16:27;;;;;;;27.97;13.97;;;1.00;99.90;;;;;;4108281;28;21212;-61
2021/11/10 00:18:28;;;;;;;27.27;13.60;;;1.00;99.90;;;;;;4109234;28;21006;-61
2021/11/10 00:20:29;;;;;;;28.33;12.80;;;1.00;99.90;;;;;;4108343;28;20280;-64
2021/11/10 00:22:30;;;;;;;23.97;12.07;;;1.00;99.90;;;;;;4109231;28;20280;-60
2021/11/10 00:24:31;;;;;;;24.60;12.07;;;1.00;99.90;;;;;;4115198;28;20349;-62
2021/11/10 00:26:33;;;;;;;24.63;13.10;;;1.00;99.90;;;;;;4125288;28;20268;-61
2021/11/10 00:28:34;;;;;;;20.97;10.47;;;1.10;99.90;;;;;;4123673;28;20287;-64
2021/11/10 00:30:35;;;;;;;28.63;14.27;;;1.10;99.90;;;;;;4124733;28;20327;-69
2021/11/10 00:32:36;;;;;;;32.40;16.50;;;1.00;99.90;;;;;;4123714;28;20274;-60
2021/11/10 00:34:37;;;;;;;27.83;13.57;;;1.00;99.90;;;;;;4124614;28;20671;-61
2021/11/10 00:36:38;;;;;;;26.53;13.83;;;1.00;99.90;;;;;;4124626;28;20348;-69
2021/11/10 00:38:40;;;;;;;33.93;15.17;;;1.00;99.90;;;;;;4123781;28;20268;-62
2021/11/10 00:40:41;;;;;;;27.43;14.53;;;1.00;99.90;;;;;;4124883;28;20272;-61
2021/11/10 00:42:42;;;;;;;32.10;14.13;;;1.00;99.90;;;;;;4123612;28;20835;-62
2021/11/10 00:44:43;;;;;;;30.57;15.47;;;1.00;99.90;;;;;;4125343;28;20272;-61
2021/11/10 00:46:44;;;;;;;28.43;13.97;;;1.00;99.90;;;;;;4123567;28;20736;-65
2021/11/10 00:48:45;;;;;;;26.17;13.27;;;1.00;99.90;;;;;;4114392;28;20343;-58
2021/11/10 00:50:47;;;;;;;27.13;13.47;;;1.00;99.90;;;;;;4107690;28;20272;-66
2021/11/10 00:52:48;;;;;;;27.07;14.00;;;1.10;99.90;;;;;;4111292;28;20740;-58
2021/11/10 00:54:50;;;;;;;26.93;13.63;;;1.10;99.90;;;;;;4110913;28;20729;-62
2021/11/10 00:56:53;;;;;;;25.37;13.63;;;1.10;99.90;;;;;;4111440;28;20358;-65
2021/11/10 00:58:54;;;;;;;27.60;13.83;;;1.10;99.90;;;;;;4110718;28;20265;-66
2021/11/10 01:00:55;;;;;;;30.13;14.00;;;1.10;99.90;;;;;;4111406;28;20276;-71
2021/11/10 01:02:56;;;;;;;33.43;16.17;;;1.00;99.90;;;;;;4111128;28;20657;-69
2021/11/10 01:04:59;;;;;;;27.27;13.13;;;1.00;99.90;;;;;;4121115;28;20287;-64
2021/11/10 01:07:00;;;;;;;30.07;13.90;;;1.00;99.90;;;;;;4127308;28;20252;-62
2021/11/10 01:09:02;;;;;;;29.70;14.50;;;1.00;99.90;;;;;;4125757;28;20264;-62
2021/11/10 01:11:03;;;;;;;27.87;13.10;;;1.00;99.90;;;;;;4127816;28;20327;-62
2021/11/10 01:13:05;;;;;;;24.50;13.27;;;1.10;99.90;;;;;;4126807;28;20330;-62
2021/11/10 01:15:09;;;;;;;26.50;13.00;;;1.10;99.90;;;;;;4127993;28;20328;-65
2021/11/10 01:17:10;;;;;;;28.60;14.77;;;1.10;99.90;;;;;;4126320;28;20307;-66
2021/11/10 01:19:11;;;;;;;30.40;14.53;;;1.20;99.90;;;;;;4127587;28;20334;-65
2021/11/10 01:21:12;;;;;;;26.67;13.90;;;1.20;99.90;;;;;;4126253;28;20284;-64
2021/11/10 01:23:14;;;;;;;27.13;13.87;;;1.30;99.90;;;;;;4126317;28;20279;-59
2021/11/10 01:25:15;;;;;;;31.13;15.83;;;1.30;99.90;;;;;;4126606;28;20319;-64
2021/11/10 01:27:17;;;;;;;39.87;18.50;;;1.40;99.90;;;;;;4128178;28;20283;-64
2021/11/10 01:29:18;;;;;;;41.17;19.73;;;1.40;99.90;;;;;;4126793;28;20673;-60
2021/11/10 01:31:20;;;;;;;45.10;21.00;;;1.50;99.90;;;;;;4127361;28;20272;-61
2021/11/10 01:33:21;;;;;;;37.47;19.57;;;1.50;99.90;;;;;;4126739;28;20728;-61
2021/11/10 01:35:22;;;;;;;42.80;19.37;;;1.60;99.90;;;;;;4127435;28;20272;-61
2021/11/10 01:37:23;;;;;;;35.60;17.53;;;1.60;99.90;;;;;;4121332;28;20383;-60
2021/11/10 01:39:25;;;;;;;33.37;17.00;;;1.70;99.90;;;;;;4110743;28;20819;-60
2021/11/10 01:41:26;;;;;;;34.03;16.87;;;1.70;99.90;;;;;;4110808;28;20975;-60
2021/11/10 01:43:27;;;;;;;33.30;17.03;;;1.70;99.90;;;;;;4108941;28;20692;-64
2021/11/10 01:45:28;;;;;;;30.07;16.67;;;1.80;99.90;;;;;;4110439;28;20284;-59
2021/11/10 01:47:29;;;;;;;35.53;17.77;;;1.70;99.90;;;;;;4109320;28;20280;-66
2021/11/10 01:49:31;;;;;;;32.23;16.27;;;1.70;99.90;;;;;;4110512;28;20697;-63
2021/11/10 01:51:32;;;;;;;33.53;16.73;;;1.60;99.90;;;;;;4109025;28;20741;-67
2021/11/10 01:53:34;;;;;;;34.47;16.53;;;1.60;99.90;;;;;;4111637;28;20285;-65
2021/11/10 01:55:37;;;;;;;34.37;16.33;;;1.60;99.90;;;;;;4108545;28;20614;-64
2021/11/10 01:57:39;;;;;;;30.80;16.13;;;1.60;99.90;;;;;;4110435;28;20292;-60
2021/11/10 01:59:46;;;;;;;34.17;16.13;;;1.60;99.90;;;;;;4108576;28;20288;-61
2021/11/10 02:01:47;;;;;;;34.23;15.83;;;1.50;99.90;;;;;;4109815;28;20324;-62
2021/11/10 02:03:49;;;;;;;34.80;17.87;;;1.60;99.90;;;;;;4108209;28;20785;-61
2021/11/10 02:05:51;;;;;;;35.20;16.60;;;1.50;99.90;;;;;;4110226;28;20332;-65
2021/11/10 02:07:52;;;;;;;40.40;16.47;;;1.50;99.90;;;;;;4108929;28;20816;-62
2021/11/10 02:09:54;;;;;;;36.50;17.23;;;1.50;99.90;;;;;;4108912;28;20277;-62
2021/11/10 02:11:57;;;;;;;35.83;17.73;;;1.50;99.90;;;;;;4109772;28;20319;-61
2021/11/10 02:13:59;;;;;;;36.57;17.53;;;1.60;99.90;;;;;;4109059;28;20359;-62
2021/11/10 02:16:01;;;;;;;34.40;15.80;;;1.60;99.90;;;;;;4109186;28;20915;-62
2021/11/10 02:18:02;;;;;;;31.73;16.00;;;1.70;99.90;;;;;;4108490;28;20312;-60
2021/11/10 02:20:07;;;;;;;37.57;16.83;;;1.80;99.90;;;;;;4110123;28;20261;-66
2021/11/10 02:22:08;;;;;;;28.83;15.23;;;1.80;99.90;;;;;;4109050;28;20321;-62
2021/11/10 02:24:10;;;;;;;31.90;16.00;;;1.90;99.90;;;;;;4109811;28;20335;-66
2021/11/10 02:26:22;;;;;;;31.87;16.70;;;2.00;99.90;;;;;;4109286;28;20281;-64
2021/11/10 02:28:24;;;;;;;30.47;14.37;;;2.10;99.90;;;;;;4109721;28;20327;-62
2021/11/10 02:30:26;;;;;;;27.33;14.13;;;2.10;99.90;;;;;;4106950;28;20270;-60
2021/11/10 02:32:28;;;;;;;30.73;14.43;;;2.10;99.90;;;;;;4109657;28;20269;-62
2021/11/10 02:34:29;;;;;;;26.50;14.03;;;2.20;99.90;;;;;;4107680;28;20693;-70
2021/11/10 02:36:32;;;;;;;26.13;13.43;;;2.20;99.90;;;;;;4109372;28;20273;-62
2021/11/10 02:38:34;;;;;;;28.80;14.90;;;2.30;99.90;;;;;;4109022;28;20315;-62
2021/11/10 02:40:35;;;;;;;31.03;13.03;;;2.20;99.90;;;;;;4110241;28;20265;-61
2021/11/10 02:42:37;;;;;;;24.27;11.70;;;2.20;99.90;;;;;;4070197;28;1127802;-62
2021/11/10 02:44:38;;;;;;;22.17;11.87;;;2.20;99.90;;;;;;4110430;28;20082;-60
2021/11/10 02:46:40;;;;;;;23.40;11.93;;;2.10;99.90;;;;;;4109881;28;20276;-60
2021/11/10 02:48:41;;;;;;;21.20;11.53;;;2.10;99.90;;;;;;4109123;28;20648;-62
2021/11/10 02:50:42;;;;;;;22.83;12.10;;;2.10;99.90;;;;;;4109850;28;20264;-61
2021/11/10 02:52:44;;;;;;;25.73;12.77;;;2.00;99.90;;;;;;4115530;28;20334;-67
2021/11/10 02:54:52;;;;;;;27.73;14.10;;;2.00;99.90;;;;;;4126014;28;20280;-62
2021/11/10 02:56:54;;;;;;;22.20;12.87;;;1.90;99.90;;;;;;4110321;28;20363;-60
2021/11/10 02:58:56;;;;;;;28.53;13.53;;;1.90;99.90;;;;;;4112401;28;20276;-64
2021/11/10 03:00:57;;;;;;;23.37;12.53;;;1.80;99.90;;;;;;4124868;28;20272;-62
2021/11/10 03:03:01;;;;;;;28.50;13.03;;;1.70;99.90;;;;;;4126083;28;20264;-65
2021/11/10 03:05:04;;;;;;;25.37;12.20;;;1.70;99.90;;;;;;4125056;28;20255;-61
2021/11/10 03:07:05;;;;;;;23.23;12.73;;;1.70;99.90;;;;;;4125500;28;20898;-62
2021/11/10 03:09:06;;;;;;;26.60;12.50;;;1.70;99.90;;;;;;4125117;28;20314;-64
2021/11/10 03:11:08;;;;;;;23.10;11.63;;;1.70;99.90;;;;;;4126020;28;20307;-61
2021/11/10 03:13:09;;;;;;;32.57;13.20;;;1.70;99.90;;;;;;4123725;28;20749;-62
2021/11/10 03:15:11;;;;;;;28.67;12.83;;;1.70;99.90;;;;;;4125232;28;20315;-61
2021/11/10 03:17:14;;;;;;;29.50;14.63;;;1.60;99.90;;;;;;4108501;28;20852;-61
2021/11/10 03:19:16;;;;;;;31.93;15.87;;;1.60;99.90;;;;;;4110884;28;20347;-61
2021/11/10 03:21:17;;;;;;;31.00;15.80;;;1.60;99.90;;;;;;4108200;28;20351;-62
2021/11/10 03:23:18;;;;;;;33.57;16.23;;;1.60;99.90;;;;;;4108472;28;20749;-61
2021/11/10 03:25:19;;;;;;;33.27;16.87;;;1.70;99.90;;;;;;4107868;28;20290;-61
2021/11/10 03:27:20;;;;;;;34.17;16.50;;;1.70;99.90;;;;;;4108887;28;20690;-63
2021/11/10 03:29:21;;;;;;;35.77;16.10;;;1.70;99.90;;;;;;4109878;28;20257;-61
2021/11/10 03:31:23;;;;;;;30.23;14.27;;;1.70;99.90;;;;;;4108298;28;20269;-61
2021/11/10 03:33:24;;;;;;;27.33;12.87;;;1.70;99.90;;;;;;4124012;28;20331;-62
2021/11/10 03:35:25;;;;;;;24.43;14.03;;;1.70;99.90;;;;;;4124355;28;20696;-63
2021/11/10 03:37:26;;;;;;;25.23;13.33;;;1.70;99.90;;;;;;4125741;28;20292;-61
2021/11/10 03:39:27;;;;;;;31.20;13.00;;;1.70;99.90;;;;;;4124458;28;20268;-61
2021/11/10 03:41:29;;;;;;;29.57;14.10;;;1.70;99.90;;;;;;4125107;28;20272;-61
2021/11/10 03:43:30;;;;;;;27.50;15.13;;;1.70;99.90;;;;;;4124515;28;20280;-59
2021/11/10 03:45:31;;;;;;;25.77;14.63;;;1.80;99.90;;;;;;4125532;28;20343;-61
2021/11/10 03:47:32;;;;;;;29.00;13.13;;;1.90;99.90;;;;;;4124442;28;21015;-64
2021/11/10 03:49:33;;;;;;;27.60;13.30;;;1.90;99.90;;;;;;4125076;28;20268;-60
2021/11/10 03:51:35;;;;;;;38.13;16.10;;;1.90;99.90;;;;;;4124708;28;20322;-60
2021/11/10 03:53:36;;;;;;;36.23;15.73;;;2.00;99.90;;;;;;4124737;28;20284;-60
2021/11/10 03:55:37;;;;;;;39.00;16.53;;;2.00;99.90;;;;;;4125094;28;20319;-61
2021/11/10 03:57:38;;;;;;;47.17;18.87;;;1.90;99.90;;;;;;4124579;28;20300;-63
2021/11/10 03:59:40;;;;;;;33.77;14.77;;;1.90;99.90;;;;;;4124142;28;20276;-61
2021/11/10 04:01:41;;;;;;;35.07;15.97;;;2.00;99.90;;;;;;4124345;28;20396;-61
2021/11/10 04:03:42;;;;;;;42.73;15.93;;;1.90;99.90;;;;;;4125408;28;20315;-59
2021/11/10 04:05:44;;;;;;;35.70;14.07;;;2.00;99.90;;;;;;4118017;28;20779;-61
2021/11/10 04:07:45;;;;;;;43.20;14.63;;;2.00;99.90;;;;;;4109466;28;20253;-60
2021/11/10 04:09:46;;;;;;;37.83;15.50;;;2.00;99.90;;;;;;4107994;28;20324;-60
2021/11/10 04:11:48;;;;;;;39.50;14.70;;;2.10;99.90;;;;;;4114058;28;20644;-61
2021/11/10 04:13:50;;;;;;;38.37;14.67;;;2.10;99.90;;;;;;4124034;28;20318;-62
2021/11/10 04:15:51;;;;;;;34.27;13.57;;;2.10;99.90;;;;;;4125385;28;20260;-62
2021/11/10 04:17:53;;;;;;;28.73;12.70;;;2.10;99.90;;;;;;4123708;28;20338;-62
2021/11/10 04:19:54;;;;;;;28.50;12.47;;;2.20;99.90;;;;;;4124232;28;20295;-63
2021/11/10 04:21:56;;;;;;;31.30;11.73;;;2.20;99.90;;;;;;4124194;28;21009;-60
2021/11/10 04:23:59;;;;;;;27.20;11.20;;;2.20;99.90;;;;;;4124110;28;20841;-67
2021/11/10 04:26:03;;;;;;;31.30;12.20;;;2.20;99.90;;;;;;4123898;28;20300;-63
2021/11/10 04:28:05;;;;;;;32.10;12.57;;;2.20;99.90;;;;;;4123015;28;20350;-65
2021/11/10 04:30:07;;;;;;;29.80;11.67;;;2.20;99.90;;;;;;4123268;28;20280;-60
2021/11/10 04:32:08;;;;;;;32.60;11.70;;;2.30;99.90;;;;;;4123289;28;20777;-59
2021/11/10 04:34:10;;;;;;;34.20;12.97;;;2.30;99.90;;;;;;4124193;28;20284;-63
2021/11/10 04:36:12;;;;;;;35.73;12.27;;;2.40;99.90;;;;;;4139718;28;20299;-63
2021/11/10 04:38:13;;;;;;;36.37;14.27;;;2.40;99.90;;;;;;4140459;28;20779;-59
2021/11/10 04:40:14;;;;;;;31.33;12.20;;;2.40;99.90;;;;;;4123461;28;20346;-64
2021/11/10 04:42:15;;;;;;;31.60;11.87;;;2.40;99.90;;;;;;4122178;28;20284;-61
2021/11/10 04:44:17;;;;;;;26.67;12.07;;;2.40;99.90;;;;;;4112967;28;20768;-61
2021/11/10 04:46:34;;;;;;;31.83;13.53;;;2.40;99.90;;;;;;4125336;28;21731;-68
2021/11/10 04:48:37;;;;;;;37.93;15.37;;;2.40;99.90;;;;;;4123702;28;20276;-62
2021/11/10 04:50:41;;;;;;;51.83;22.43;;;2.40;99.90;;;;;;4124780;28;20284;-62
2021/11/10 04:52:43;;;;;;;29.03;13.50;;;2.40;99.90;;;;;;4123764;28;21126;-62
2021/11/10 04:54:44;;;;;;;33.30;13.10;;;2.40;99.90;;;;;;4122695;28;20292;-63
2021/11/10 04:56:46;;;;;;;29.63;12.97;;;2.50;99.90;;;;;;4121950;28;20288;-62
2021/11/10 04:58:47;;;;;;;31.53;13.63;;;2.40;99.90;;;;;;4123714;28;20700;-62
2021/11/10 05:00:48;;;;;;;33.10;14.30;;;2.40;99.90;;;;;;4115953;28;20323;-62
2021/11/10 05:02:50;;;;;;;37.67;13.07;;;2.40;99.90;;;;;;4108114;28;20816;-60
2021/11/10 05:04:53;;;;;;;39.97;16.23;;;2.50;99.90;;;;;;4107991;28;20281;-61
2021/11/10 05:06:54;;;;;;;38.70;16.13;;;2.40;99.90;;;;;;4107390;28;20344;-61
2021/11/10 05:08:55;;;;;;;50.87;17.87;;;2.40;99.90;;;;;;4109333;28;20680;-68
2021/11/10 05:10:57;;;;;;;42.50;16.17;;;2.30;99.90;;;;;;4129519;28;20268;-61
2021/11/10 05:12:58;;;;;;;40.73;17.60;;;2.20;99.90;;;;;;4121428;28;20269;-62
2021/11/10 05:14:59;;;;;;;39.23;16.60;;;2.20;99.90;;;;;;4111857;28;20300;-62
2021/11/10 05:17:00;;;;;;;40.23;16.73;;;2.10;99.90;;;;;;4114544;28;20276;-61
2021/11/10 05:19:01;;;;;;;38.73;17.67;;;2.10;99.90;;;;;;4109784;28;20789;-62
2021/11/10 05:21:02;;;;;;;39.73;17.57;;;2.10;99.90;;;;;;4111598;28;20280;-61
2021/11/10 05:23:03;;;;;;;29.67;14.00;;;2.10;99.90;;;;;;4110150;28;20280;-61
2021/11/10 05:25:06;;;;;;;39.43;17.77;;;2.00;99.90;;;;;;4108785;28;20334;-61
2021/11/10 05:27:07;;;;;;;40.13;16.17;;;2.00;99.90;;;;;;4109638;28;20308;-60
2021/11/10 05:29:09;;;;;;;44.17;19.57;;;1.90;99.90;;;;;;4112991;28;20280;-61
2021/11/10 05:31:10;;;;;;;38.80;19.00;;;1.90;99.90;;;;;;4109846;28;20288;-59
2021/11/10 05:33:13;;;;;;;47.77;21.00;;;1.80;99.90;;;;;;4110357;28;20763;-61
2021/11/10 05:35:14;;;;;;;47.03;20.33;;;1.80;99.90;;;;;;4110345;28;20277;-61
2021/11/10 05:37:16;;;;;;;70.40;26.23;;;1.90;99.90;;;;;;4111227;28;20322;-62
2021/11/10 05:39:17;;;;;;;49.57;21.17;;;2.00;99.90;;;;;;4111267;28;20333;-61
2021/11/10 05:41:19;;;;;;;39.67;18.27;;;2.20;99.90;;;;;;4112277;28;20346;-58
2021/11/10 05:43:20;;;;;;;38.27;17.30;;;2.30;99.90;;;;;;4117332;28;20280;-64
2021/11/10 05:45:21;;;;;;;34.03;16.00;;;2.40;99.90;;;;;;4113011;28;20273;-62
2021/11/10 05:47:22;;;;;;;35.37;16.23;;;2.40;99.90;;;;;;4113925;28;20284;-63
2021/11/10 05:49:23;;;;;;;38.60;15.30;;;2.40;99.90;;;;;;4112761;28;20276;-62
2021/11/10 05:51:24;;;;;;;39.70;16.87;;;2.40;99.90;;;;;;4118979;28;21041;-65
2021/11/10 05:53:26;;;;;;;39.73;16.70;;;2.40;99.90;;;;;;4115905;28;20287;-64
2021/11/10 05:55:29;;;;;;;42.13;17.67;;;2.30;99.90;;;;;;4126791;28;20272;-64
2021/11/10 05:57:31;;;;;;;35.53;16.03;;;2.40;99.90;;;;;;4125351;28;20263;-63
2021/11/10 05:59:33;;;;;;;34.03;14.63;;;2.40;99.90;;;;;;4126926;28;20252;-62
2021/11/10 06:01:36;;;;;;;47.80;15.73;;;2.40;99.90;;;;;;4125508;28;20268;-68
2021/11/10 06:03:37;;;;;;;33.87;14.37;;;2.40;99.90;;;;;;4124431;28;20280;-62
2021/11/10 06:05:38;;;;;;;31.90;14.17;;;2.40;99.90;;;;;;4125964;28;20414;-62
2021/11/10 06:07:40;;;;;;;32.80;14.83;;;2.40;99.90;;;;;;4125642;28;20276;-62
2021/11/10 06:09:41;;;;;;;32.03;12.10;;;2.50;99.90;;;;;;4125908;28;20272;-62
2021/11/10 06:11:44;;;;;;;28.90;12.47;;;2.50;99.90;;;;;;4125864;28;20272;-63
2021/11/10 06:13:45;;;;;;;31.40;13.73;;;2.60;99.90;;;;;;4125854;28;20740;-64
2021/11/10 06:15:46;;;;;;;30.73;13.37;;;2.60;99.90;;;;;;4125344;28;20260;-58
2021/11/10 06:17:47;;;;;;;30.27;12.97;;;2.60;99.90;;;;;;4124554;28;20295;-61
2021/11/10 06:19:48;;;;;;;26.37;11.80;;;2.60;99.90;;;;;;4125256;28;20358;-63
2021/11/10 06:21:50;;;;;;;31.87;13.07;;;2.70;99.90;;;;;;4125421;28;20645;-61
2021/11/10 06:23:51;;;;;;;33.60;14.20;;;2.70;99.90;;;;;;4125099;28;20272;-69
2021/11/10 06:25:52;;;;;;;33.77;14.10;;;2.70;99.90;;;;;;4125984;28;20350;-63
2021/11/10 06:27:54;;;;;;;33.80;14.67;;;2.70;99.90;;;;;;4124692;28;20288;-66
2021/11/10 06:29:55;;;;;;;29.77;12.70;;;2.80;99.90;;;;;;4126434;28;21074;-62
2021/11/10 06:31:56;;;;;;;30.60;13.20;;;2.90;99.90;;;;;;4124274;28;20311;-61
2021/11/10 06:33:57;;;;;;;29.30;11.70;;;2.90;99.90;;;;;;4125747;28;20354;-61
2021/11/10 06:35:58;;;;;;;30.30;12.53;;;2.90;99.90;;;;;;4124549;28;20331;-63
2021/11/10 06:38:00;;;;;;;30.37;12.43;;;3.00;99.90;;;;;;4125554;28;20358;-61
2021/11/10 06:40:02;;;;;;;30.40;12.33;;;3.00;99.90;;;;;;4125221;28;20729;-62
2021/11/10 06:42:04;;;;;;;32.83;13.90;;;3.00;99.90;;;;;;4125294;28;20291;-70
2021/11/10 06:44:06;;;;;;;30.10;12.77;;;3.20;99.90;;;;;;4124522;28;20681;-61
2021/11/10 06:46:07;;;;;;;39.23;18.43;;;3.20;99.90;;;;;;4124653;28;20322;-61
2021/11/10 06:48:08;;;;;;;48.70;20.70;;;3.30;99.90;;;;;;4126278;28;20820;-60
2021/11/10 06:50:10;;;;;;;43.53;18.43;;;3.40;99.90;;;;;;4123929;28;20790;-61
2021/11/10 06:52:13;;;;;;;36.77;14.63;;;3.50;99.90;;;;;;4125300;28;20362;-62
2021/11/10 06:54:14;;;;;;;28.23;12.97;;;3.60;99.90;;;;;;4125414;28;20326;-67
2021/11/10 06:56:17;;;;;;;25.93;11.87;;;3.70;99.90;;;;;;4126347;28;21020;-61
2021/11/10 06:58:18;;;;;;;26.23;13.33;;;3.70;99.90;;;;;;4123659;28;20369;-61
2021/11/10 07:00:19;;;;;;;29.43;13.57;;;3.70;99.90;;;;;;4125319;28;20322;-71
2021/11/10 07:02:20;;;;;;;31.37;13.97;;;3.80;99.90;;;;;;4124777;28;20574;-61
2021/11/10 07:04:22;;;;;;;30.73;14.00;;;3.90;99.90;;;;;;4125410;28;20322;-63
2021/11/10 07:06:23;;;;;;;31.63;14.03;;;4.10;99.90;;;;;;4124402;28;20268;-68
2021/11/10 07:08:24;;;;;;;34.90;15.17;;;4.30;99.90;;;;;;4123270;28;20319;-68
2021/11/10 07:10:25;;;;;;;39.40;15.57;;;4.60;99.90;;;;;;4123985;28;20326;-68
2021/11/10 07:12:26;;;;;;;36.17;13.67;;;4.80;99.90;;;;;;4124851;28;20725;-61
2021/11/10 07:14:27;;;;;;;31.00;14.63;;;4.90;99.90;;;;;;4124994;28;20264;-62
2021/11/10 07:16:29;;;;;;;30.80;13.03;;;5.00;99.90;;;;;;4124541;28;20268;-63
2021/11/10 07:18:30;;;;;;;30.93;13.93;;;5.00;99.90;;;;;;4125246;28;20300;-64
2021/11/10 07:20:31;;;;;;;38.47;14.30;;;5.00;99.90;;;;;;4123843;28;20280;-63
2021/11/10 07:22:32;;;;;;;24.60;11.53;;;5.00;99.90;;;;;;4125392;28;20276;-65
2021/11/10 07:24:33;;;;;;;30.97;12.40;;;5.20;99.90;;;;;;4124194;28;21134;-66
2021/11/10 07:26:34;;;;;;;26.80;11.63;;;5.30;99.90;;;;;;4124749;28;20330;-64
2021/11/10 07:28:35;;;;;;;28.83;13.77;;;5.40;99.90;;;;;;4124815;28;20331;-63
2021/11/10 07:30:37;;;;;;;40.90;16.40;;;5.50;99.90;;;;;;4124982;28;20276;-66
2021/11/10 07:32:40;;;;;;;31.87;13.73;;;5.60;99.90;;;;;;4124484;28;20268;-61
2021/11/10 07:34:41;;;;;;;29.93;13.63;;;5.70;99.90;;;;;;4125170;28;20499;-61
2021/11/10 07:36:42;;;;;;;32.20;12.77;;;5.90;99.90;;;;;;4124009;28;20326;-61
2021/11/10 07:38:43;;;;;;;26.93;13.97;;;5.90;99.90;;;;;;4125214;28;20112;-62
2021/11/10 07:40:44;;;;;;;33.73;13.97;;;5.90;99.90;;;;;;4124320;28;20063;-61
2021/11/10 07:42:46;;;;;;;29.27;13.30;;;6.00;99.90;;;;;;4124434;28;20042;-62
2021/11/10 07:44:51;;;;;;;29.00;14.57;;;6.10;99.90;;;;;;4124372;28;20116;-62
2021/11/10 07:47:11;;;;;;;30.17;14.37;;;6.20;99.90;;;;;;4122418;28;20097;-62
2021/11/10 07:49:18;;;;;;;27.10;13.82;;;6.50;99.90;;;;;;4124260;28;20081;-62
2021/11/10 07:51:20;;;;;;;27.43;13.80;;;6.80;99.90;;;;;;4124363;28;20030;-68
2021/11/10 07:53:21;;;;;;;30.07;12.80;;;6.80;99.90;;;;;;4125113;28;20084;-62
2021/11/10 07:55:23;;;;;;;30.03;14.00;;;7.10;99.90;;;;;;4123693;28;20056;-65
2021/11/10 07:57:24;;;;;;;30.47;14.40;;;7.20;99.90;;;;;;4124843;28;20477;-61
2021/11/10 07:59:25;;;;;;;27.33;13.53;;;7.30;99.90;;;;;;4123808;28;20088;-72
2021/11/10 08:01:26;;;;;;;21.50;11.83;;;7.30;99.90;;;;;;4124466;28;20030;-62
2021/11/10 08:03:27;;;;;;;26.53;12.73;;;7.20;99.90;;;;;;4123505;28;21074;-67
2021/11/10 08:05:29;;;;;;;20.30;11.90;;;7.40;99.90;;;;;;4125096;28;20034;-64
2021/11/10 08:07:30;;;;;;;27.00;12.50;;;7.40;99.90;;;;;;4123212;28;20038;-61
2021/11/10 08:09:31;;;;;;;25.73;12.17;;;7.40;99.90;;;;;;4124655;28;20046;-70
2021/11/10 08:11:32;;;;;;;24.50;12.50;;;7.60;99.90;;;;;;4123690;28;20120;-72
2021/11/10 08:13:33;;;;;;;26.83;13.83;;;7.80;99.90;;;;;;4124875;28;20034;-67
2021/11/10 08:15:36;;;;;;;27.80;14.23;;;7.70;99.90;;;;;;4123747;28;20030;-63
2021/11/10 08:17:38;;;;;;;24.17;12.90;;;7.60;99.90;;;;;;4124564;28;20443;-71
2021/11/10 08:19:39;;;;;;;23.33;12.73;;;7.60;99.90;;;;;;4123938;28;20035;-64
2021/11/10 08:21:41;;;;;;;29.23;13.50;;;7.50;99.90;;;;;;4123970;28;20046;-61
2021/11/10 08:23:42;;;;;;;23.87;12.37;;;7.40;99.90;;;;;;4124239;28;20550;-65
2021/11/10 08:25:43;;;;;;;27.87;13.13;;;7.30;99.90;;;;;;4123262;28;20034;-68
2021/11/10 08:27:45;;;;;;;26.67;13.83;;;7.40;99.90;;;;;;4124072;28;20093;-61
2021/11/10 08:29:46;;;;;;;26.33;13.30;;;7.20;99.90;;;;;;4122971;28;20042;-62
2021/11/10 08:31:48;;;;;;;28.03;13.23;;;7.10;99.90;;;;;;4124637;28;20177;-62
2021/11/10 08:33:50;;;;;;;33.50;15.23;;;7.10;99.90;;;;;;4122335;28;20050;-66
2021/11/10 08:35:51;;;;;;;31.87;16.63;;;7.10;99.90;;;;;;4124581;28;20471;-61
2021/11/10 08:37:57;;;;;;;31.23;15.00;;;7.10;99.90;;;;;;4123412;28;20038;-65
2021/11/10 08:40:00;;;;;;;33.33;15.03;;;6.90;99.90;;;;;;4124469;28;20069;-65
2021/11/10 08:42:04;;;;;;;29.70;14.33;;;6.70;99.90;;;;;;4123576;28;20387;-66
2021/11/10 08:44:05;;;;;;;26.83;12.33;;;6.70;99.90;;;;;;4123948;28;20054;-61
2021/11/10 08:46:07;;;;;;;28.07;13.43;;;6.40;99.90;;;;;;4122896;28;20112;-61
2021/11/10 08:48:08;;;;;;;27.60;13.03;;;6.20;99.90;;;;;;4124507;28;20060;-63
2021/11/10 08:50:12;;;;;;;23.03;12.97;;;5.90;99.90;;;;;;4123712;28;20038;-64
2021/11/10 08:52:14;;;;;;;24.80;13.00;;;5.80;99.90;;;;;;4124174;28;20035;-65
2021/11/10 08:54:15;;;;;;;25.10;13.17;;;5.70;99.90;;;;;;4124297;28;20174;-66
2021/11/10 08:56:17;;;;;;;24.80;12.03;;;5.50;99.90;;;;;;4123426;28;20120;-62
2021/11/10 08:58:18;;;;;;;23.37;12.73;;;5.50;99.90;;;;;;4123948;28;20035;-71
2021/11/10 09:00:23;;;;;;;24.87;12.53;;;5.40;99.90;;;;;;4123244;28;20092;-66
2021/11/10 09:02:24;;;;;;;23.20;12.90;;;5.30;99.90;;;;;;4123564;28;20449;-61
2021/11/10 09:04:25;;;;;;;26.73;12.20;;;5.30;99.90;;;;;;4122391;28;20046;-65
2021/11/10 09:06:26;;;;;;;24.17;12.10;;;5.30;99.90;;;;;;4123508;28;20046;-67
2021/11/10 09:08:30;;;;;;;23.40;11.80;;;5.20;99.90;;;;;;4122492;28;20697;-72
2021/11/10 09:10:34;;;;;;;25.37;12.37;;;5.00;99.90;;;;;;4123777;28;20672;-63
2021/11/10 09:12:36;;;;;;;27.50;13.67;;;4.90;99.90;;;;;;4122997;28;20792;-63
2021/11/10 09:14:37;;;;;;;27.57;13.97;;;4.90;99.90;;;;;;4126699;28;20346;-65
2021/11/10 09:16:38;;;;;;;24.57;13.47;;;4.80;99.90;;;;;;4126429;28;20284;-67
2021/11/10 09:18:40;;;;;;;23.63;11.70;;;4.70;99.90;;;;;;4127061;28;20287;-64
2021/11/10 09:20:42;;;;;;;28.20;14.03;;;4.70;99.90;;;;;;4126042;28;20272;-61
2021/11/10 09:22:46;;;;;;;27.47;12.83;;;4.70;99.90;;;;;;4127041;28;20323;-62
2021/11/10 09:24:47;;;;;;;23.00;12.33;;;4.70;99.90;;;;;;4126844;28;20256;-63
2021/11/10 09:26:50;;;;;;;25.03;13.00;;;4.70;99.90;;;;;;4126888;28;20272;-62
2021/11/10 09:28:53;;;;;;;25.43;12.90;;;4.80;99.90;;;;;;4126557;28;20602;-62
2021/11/10 09:30:54;;;;;;;25.77;12.00;;;4.90;99.90;;;;;;4126234;28;20342;-67
2021/11/10 09:32:58;;;;;;;24.93;13.10;;;4.80;99.90;;;;;;4125812;28;20276;-63
2021/11/10 09:35:00;;;;;;;25.20;12.47;;;4.70;99.90;;;;;;4126008;28;20271;-62
2021/11/10 09:37:02;;;;;;;26.83;12.40;;;4.70;99.90;;;;;;4126557;28;20675;-62
2021/11/10 09:39:03;;;;;;;22.70;12.30;;;4.80;99.90;;;;;;4126213;28;20288;-62
2021/11/10 09:41:05;;;;;;;22.27;12.07;;;5.00;99.90;;;;;;4125965;28;20284;-64
2021/11/10 09:43:08;;;;;;;21.53;10.83;;;5.10;99.90;;;;;;4125022;28;20304;-63
2021/11/10 09:45:13;;;;;;;21.20;11.40;;;5.00;99.90;;;;;;4126855;28;20311;-69
2021/11/10 09:47:14;;;;;;;18.73;10.20;;;4.90;99.90;;;;;;4125456;28;20280;-64
2021/11/10 09:49:16;;;;;;;26.97;12.00;;;4.90;99.90;;;;;;4127306;28;20276;-66
2021/11/10 09:51:18;;;;;;;24.10;11.27;;;4.90;99.90;;;;;;4125459;28;20272;-65
2021/11/10 09:53:19;;;;;;;23.27;12.70;;;4.90;99.90;;;;;;4126931;28;20264;-62
2021/11/10 09:55:23;;;;;;;23.70;12.30;;;4.90;99.90;;;;;;4124218;28;20276;-62
2021/11/10 09:57:24;;;;;;;26.13;13.53;;;4.90;99.90;;;;;;4126169;28;20280;-62
2021/11/10 09:59:27;;;;;;;24.27;12.60;;;4.80;99.90;;;;;;4124836;28;20292;-65
2021/11/10 10:01:28;;;;;;;24.40;12.43;;;4.90;99.90;;;;;;4126606;28;20264;-68
2021/11/10 10:03:29;;;;;;;27.73;13.03;;;4.90;99.90;;;;;;4125680;28;20322;-67
2021/11/10 10:05:31;;;;;;;23.77;12.30;;;4.90;99.90;;;;;;4126224;28;20272;-68
2021/11/10 10:07:33;;;;;;;26.27;12.77;;;4.90;99.90;;;;;;4126348;28;20271;-60
2021/11/10 10:09:36;;;;;;;26.43;11.90;;;4.90;99.90;;;;;;4125866;28;21156;-62
2021/11/10 10:11:37;;;;;;;24.73;11.37;;;4.80;99.90;;;;;;4126815;28;20264;-65
2021/11/10 10:13:40;;;;;;;26.50;12.83;;;4.80;99.90;;;;;;4125186;28;20268;-61
2021/11/10 10:15:43;;;;;;;26.50;12.10;;;4.70;99.90;;;;;;4125838;28;20342;-63
2021/11/10 10:17:46;;;;;;;27.20;12.90;;;4.70;99.90;;;;;;4125197;28;20267;-65
2021/11/10 10:19:47;;;;;;;24.20;12.33;;;4.50;99.90;;;;;;4124194;28;20823;-61
2021/11/10 10:21:59;;;;;;;30.87;13.00;;;4.50;99.90;;;;;;4125109;28;20272;-61
2021/11/10 10:24:01;;;;;;;23.50;13.07;;;4.40;99.90;;;;;;4124658;28;20330;-71